Terminal Aerodrome Forecast
Issued by NWS

Home | Current Version | Previous Version | Text Only | Print | Product List | Glossary On
Versions: 1 2 3 4 5 6 7 8 9 10 11 12 13 14
000
FTUS46 KMTR 022333
TAFSTS
TAF
KSTS 022333Z 0300/0324 20008KT P6SM SKC
     FM030300 18006KT P6SM SKC
     FM030600 00000KT P6SM SKC
      TEMPO 0312/0316 BKN008
     FM031600 VRB03KT P6SM SKC
     FM032200 20008KT P6SM FEW200=

USA.gov is the U.S. government's official web portal to all federal, state and local government web resources and services.